Time;durP1;ratioP1;P1;durP2;ratioP2;P2;SDS_P1;SDS_P2;PMS_P1;PMS_P2;Temp;Humidity;BMP_temperature;BMP_pressure;BME280_temperature;BME280_humidity;BME280_pressure;Samples;Min_cycle;Max_cycle;Signal;HPM_P1;HPM_P2
2021/09/04 00:00:23;;;;;;;9.35;7.88;;;;;;;;;;5033994;28;20029;-58
2021/09/04 00:02:49;;;;;;;9.00;7.13;;;;;;;;;;5033526;28;20044;-59
2021/09/04 00:05:15;;;;;;;10.20;7.53;;;;;;;;;;5033980;28;20026;-59
2021/09/04 00:07:41;;;;;;;13.30;8.40;;;;;;;;;;5033963;28;20105;-59
2021/09/04 00:10:07;;;;;;;15.10;8.57;;;;;;;;;;5033415;28;20040;-59
2021/09/04 00:12:33;;;;;;;11.68;8.85;;;;;;;;;;5034091;28;20096;-59
2021/09/04 00:14:59;;;;;;;11.75;8.38;;;;;;;;;;5033638;28;20478;-59
2021/09/04 00:17:26;;;;;;;11.23;8.65;;;;;;;;;;5033347;28;20108;-59
2021/09/04 00:19:52;;;;;;;9.65;8.55;;;;;;;;;;5032976;28;20071;-59
2021/09/04 00:22:18;;;;;;;10.13;8.48;;;;;;;;;;5033558;28;20033;-59
2021/09/04 00:24:47;;;;;;;9.75;8.27;;;;;;;;;;5033552;28;20119;-59
2021/09/04 00:27:13;;;;;;;13.60;8.65;;;;;;;;;;5033297;28;20036;-59
2021/09/04 00:29:39;;;;;;;10.15;8.27;;;;;;;;;;5015712;28;20446;-59
2021/09/04 00:32:06;;;;;;;7.80;7.00;;;;;;;;;;5033270;28;20379;-59
2021/09/04 00:34:32;;;;;;;9.70;7.22;;;;;;;;;;4999122;28;20107;-59
2021/09/04 00:36:58;;;;;;;9.02;7.93;;;;;;;;;;5015479;28;20479;-59
2021/09/04 00:39:24;;;;;;;10.35;8.07;;;;;;;;;;5035619;28;20103;-59
2021/09/04 00:41:50;;;;;;;7.50;6.57;;;;;;;;;;5037240;28;20108;-58
2021/09/04 00:44:18;;;;;;;9.15;7.70;;;;;;;;;;5037000;28;20033;-59
2021/09/04 00:46:47;;;;;;;8.90;7.88;;;;;;;;;;5036797;28;20479;-59
2021/09/04 00:49:14;;;;;;;8.70;7.05;;;;;;;;;;5036998;28;20033;-59
2021/09/04 00:51:40;;;;;;;7.50;6.68;;;;;;;;;;5036676;28;20027;-59
2021/09/04 00:54:06;;;;;;;8.07;7.28;;;;;;;;;;5036584;28;20087;-59
2021/09/04 00:56:33;;;;;;;10.02;7.55;;;;;;;;;;5037053;28;20445;-59
2021/09/04 00:59:05;;;;;;;9.73;7.95;;;;;;;;;;5036184;28;20029;-59
2021/09/04 01:01:32;;;;;;;9.18;7.43;;;;;;;;;;5019436;28;20124;-59
2021/09/04 01:03:58;;;;;;;8.93;7.43;;;;;;;;;;5037272;28;20034;-58
2021/09/04 01:06:24;;;;;;;8.40;7.50;;;;;;;;;;5036392;28;20033;-59
2021/09/04 01:08:50;;;;;;;9.38;6.78;;;;;;;;;;5036854;28;20032;-59
2021/09/04 01:11:17;;;;;;;10.80;7.78;;;;;;;;;;5036155;28;20025;-59
2021/09/04 01:13:43;;;;;;;8.65;7.47;;;;;;;;;;5036443;28;20034;-59
2021/09/04 01:16:09;;;;;;;10.05;7.90;;;;;;;;;;5036261;28;20056;-59
2021/09/04 01:18:35;;;;;;;8.75;7.55;;;;;;;;;;5036357;28;20065;-59
2021/09/04 01:21:02;;;;;;;8.50;7.60;;;;;;;;;;5036398;28;20045;-59
2021/09/04 01:23:28;;;;;;;12.77;8.40;;;;;;;;;;5035742;28;20034;-59
2021/09/04 01:25:54;;;;;;;10.05;7.15;;;;;;;;;;5035914;28;20033;-59
2021/09/04 01:28:21;;;;;;;8.95;6.78;;;;;;;;;;5036179;28;20036;-59
2021/09/04 01:30:47;;;;;;;9.27;7.13;;;;;;;;;;5035971;28;20100;-59
2021/09/04 01:33:13;;;;;;;9.65;7.32;;;;;;;;;;5036090;28;20033;-59
2021/09/04 01:35:39;;;;;;;10.13;8.27;;;;;;;;;;5035808;28;20049;-59
2021/09/04 01:38:05;;;;;;;8.48;7.50;;;;;;;;;;5035939;28;20029;-59
2021/09/04 01:40:32;;;;;;;8.52;7.32;;;;;;;;;;5018242;28;20029;-59
2021/09/04 01:42:58;;;;;;;9.50;7.28;;;;;;;;;;5036548;28;20095;-59
2021/09/04 01:45:24;;;;;;;8.73;7.20;;;;;;;;;;5035657;28;20029;-59
2021/09/04 01:47:50;;;;;;;10.90;8.20;;;;;;;;;;5035673;28;20021;-59
2021/09/04 01:50:17;;;;;;;9.55;7.75;;;;;;;;;;5035001;28;20026;-59
2021/09/04 01:52:44;;;;;;;10.13;8.30;;;;;;;;;;5036089;28;20513;-59
2021/09/04 01:55:11;;;;;;;9.57;8.55;;;;;;;;;;5035470;28;20038;-59
2021/09/04 01:57:37;;;;;;;12.60;7.75;;;;;;;;;;5036155;28;20025;-59
2021/09/04 02:00:05;;;;;;;11.18;8.20;;;;;;;;;;5036160;28;20032;-59
2021/09/04 02:02:31;;;;;;;10.57;7.97;;;;;;;;;;5017654;28;20056;-59
2021/09/04 02:04:57;;;;;;;7.30;6.55;;;;;;;;;;5035273;28;20029;-59
2021/09/04 02:07:23;;;;;;;10.82;7.43;;;;;;;;;;5035258;28;20022;-59
2021/09/04 02:09:52;;;;;;;10.57;8.35;;;;;;;;;;5035226;28;20029;-59
2021/09/04 02:12:18;;;;;;;9.00;7.15;;;;;;;;;;5035657;28;20042;-59
2021/09/04 02:14:44;;;;;;;9.32;7.63;;;;;;;;;;5017202;28;20387;-59
2021/09/04 02:17:10;;;;;;;8.93;8.02;;;;;;;;;;5035544;28;20045;-59
2021/09/04 02:19:36;;;;;;;8.52;7.63;;;;;;;;;;5017276;28;20081;-59
2021/09/04 02:22:02;;;;;;;8.00;6.80;;;;;;;;;;5035584;28;20329;-59
2021/09/04 02:24:29;;;;;;;7.95;6.97;;;;;;;;;;5034922;28;20036;-59
2021/09/04 02:26:55;;;;;;;9.20;7.88;;;;;;;;;;5034851;28;20064;-59
2021/09/04 02:29:21;;;;;;;11.93;8.00;;;;;;;;;;5034482;28;20026;-59
2021/09/04 02:31:47;;;;;;;8.60;7.55;;;;;;;;;;5035591;28;20061;-59
2021/09/04 02:34:14;;;;;;;8.30;6.57;;;;;;;;;;5034974;28;20367;-59
2021/09/04 02:36:40;;;;;;;10.10;7.70;;;;;;;;;;5034992;28;20033;-59
2021/09/04 02:39:06;;;;;;;10.93;7.72;;;;;;;;;;5034599;28;20055;-59
2021/09/04 02:41:32;;;;;;;10.57;7.47;;;;;;;;;;5034630;28;20022;-59
2021/09/04 02:43:58;;;;;;;10.68;8.13;;;;;;;;;;5034637;28;20029;-59
2021/09/04 02:46:24;;;;;;;9.32;7.43;;;;;;;;;;5034847;28;20021;-59
2021/09/04 02:48:50;;;;;;;10.23;7.78;;;;;;;;;;5017788;28;20336;-59
2021/09/04 02:51:16;;;;;;;10.60;7.82;;;;;;;;;;5033425;28;20030;-59
2021/09/04 02:53:42;;;;;;;11.13;7.85;;;;;;;;;;5017221;28;20120;-59
2021/09/04 02:56:08;;;;;;;9.77;7.80;;;;;;;;;;5034378;28;20116;-59
2021/09/04 02:58:34;;;;;;;8.27;7.28;;;;;;;;;;5034349;28;20025;-59
2021/09/04 03:01:02;;;;;;;8.27;7.40;;;;;;;;;;5016460;28;20414;-59
2021/09/04 03:03:28;;;;;;;8.35;7.47;;;;;;;;;;5017159;28;20033;-59
2021/09/04 03:05:54;;;;;;;10.13;8.18;;;;;;;;;;5017276;28;20034;-59
2021/09/04 03:08:20;;;;;;;8.40;7.38;;;;;;;;;;5034877;28;20064;-59
2021/09/04 03:10:46;;;;;;;9.77;7.47;;;;;;;;;;5034127;28;20371;-59
2021/09/04 03:13:15;;;;;;;16.52;9.38;;;;;;;;;;5033894;28;20057;-59
2021/09/04 03:15:41;;;;;;;11.68;9.05;;;;;;;;;;5034052;28;20037;-59
2021/09/04 03:18:07;;;;;;;11.23;8.48;;;;;;;;;;5034352;28;20029;-59
2021/09/04 03:20:33;;;;;;;9.52;8.52;;;;;;;;;;5033966;28;20022;-59
2021/09/04 03:22:59;;;;;;;9.60;8.75;;;;;;;;;;5034250;28;20487;-59
2021/09/04 03:25:25;;;;;;;11.40;8.88;;;;;;;;;;5033615;28;20029;-59
2021/09/04 03:27:51;;;;;;;12.98;9.38;;;;;;;;;;5016711;28;20470;-58
2021/09/04 03:30:17;;;;;;;10.45;8.70;;;;;;;;;;5016142;28;20073;-59
2021/09/04 03:32:43;;;;;;;13.73;8.85;;;;;;;;;;5034577;28;20030;-59
2021/09/04 03:35:10;;;;;;;11.73;10.10;;;;;;;;;;5016330;28;20511;-59
2021/09/04 03:37:36;;;;;;;9.93;8.93;;;;;;;;;;5033660;28;20025;-59
2021/09/04 03:40:02;;;;;;;9.95;8.93;;;;;;;;;;5033588;28;20026;-58
2021/09/04 03:42:28;;;;;;;9.75;8.80;;;;;;;;;;5033959;28;20452;-59
2021/09/04 03:44:54;;;;;;;13.10;9.63;;;;;;;;;;5015870;28;20451;-59
2021/09/04 03:47:20;;;;;;;13.00;9.60;;;;;;;;;;5034340;28;20053;-59
2021/09/04 03:49:46;;;;;;;9.85;8.82;;;;;;;;;;5033654;28;20057;-58
2021/09/04 03:52:12;;;;;;;11.57;8.32;;;;;;;;;;5016496;28;20064;-59
2021/09/04 03:54:38;;;;;;;17.70;10.10;;;;;;;;;;5015843;28;20029;-59
2021/09/04 03:57:04;;;;;;;11.27;8.90;;;;;;;;;;5033538;28;20080;-59
2021/09/04 03:59:30;;;;;;;10.05;8.80;;;;;;;;;;5015941;28;20526;-59
2021/09/04 04:01:56;;;;;;;11.55;9.38;;;;;;;;;;5033253;28;20079;-59
2021/09/04 04:04:22;;;;;;;10.15;8.93;;;;;;;;;;5033438;28;20030;-59
2021/09/04 04:06:48;;;;;;;10.65;8.48;;;;;;;;;;5015836;28;20459;-59
2021/09/04 04:09:16;;;;;;;11.70;9.38;;;;;;;;;;5016294;28;20056;-59
2021/09/04 04:11:42;;;;;;;12.07;8.82;;;;;;;;;;5015838;28;20140;-58
2021/09/04 04:14:08;;;;;;;11.80;10.10;;;;;;;;;;5036281;28;20120;-59
2021/09/04 04:16:34;;;;;;;13.77;9.57;;;;;;;;;;5037878;28;20076;-59
2021/09/04 04:19:00;;;;;;;11.18;10.02;;;;;;;;;;5019866;28;20025;-59
2021/09/04 04:21:26;;;;;;;10.88;8.32;;;;;;;;;;5037321;28;20414;-59
2021/09/04 04:23:52;;;;;;;10.80;9.57;;;;;;;;;;5037858;28;20029;-59
2021/09/04 04:26:18;;;;;;;10.95;8.65;;;;;;;;;;5020584;28;20466;-59
2021/09/04 04:28:44;;;;;;;12.65;9.40;;;;;;;;;;5036847;28;20080;-59
2021/09/04 04:31:10;;;;;;;12.23;9.52;;;;;;;;;;5003682;28;20040;-59
2021/09/04 04:33:36;;;;;;;15.15;11.15;;;;;;;;;;5019884;28;20037;-59
2021/09/04 04:36:02;;;;;;;14.23;10.50;;;;;;;;;;5019315;28;20021;-59
2021/09/04 04:38:28;;;;;;;11.68;9.48;;;;;;;;;;5036986;28;20368;-58
2021/09/04 04:40:54;;;;;;;13.55;10.50;;;;;;;;;;5020215;28;20057;-59
2021/09/04 04:43:20;;;;;;;15.50;10.10;;;;;;;;;;5019468;28;20483;-59
2021/09/04 04:45:49;;;;;;;10.10;8.82;;;;;;;;;;5019269;28;20034;-59
2021/09/04 04:48:15;;;;;;;17.80;10.40;;;;;;;;;;5018789;28;20084;-59
2021/09/04 04:50:42;;;;;;;13.63;9.57;;;;;;;;;;5036606;28;20430;-59
2021/09/04 04:53:08;;;;;;;10.68;9.60;;;;;;;;;;5036738;28;20056;-58
2021/09/04 04:55:34;;;;;;;11.55;9.40;;;;;;;;;;5036389;28;20463;-59
2021/09/04 04:58:00;;;;;;;13.55;10.73;;;;;;;;;;5037429;28;20025;-58
2021/09/04 05:00:26;;;;;;;12.10;10.68;;;;;;;;;;5036336;28;20018;-59
2021/09/04 05:02:52;;;;;;;11.30;10.20;;;;;;;;;;5036540;28;20025;-59
2021/09/04 05:05:18;;;;;;;11.75;10.50;;;;;;;;;;5036533;28;20041;-59
2021/09/04 05:07:45;;;;;;;16.20;10.13;;;;;;;;;;5018754;28;20021;-59
2021/09/04 05:10:11;;;;;;;12.05;9.80;;;;;;;;;;5019106;28;20025;-59
2021/09/04 05:12:39;;;;;;;12.50;10.15;;;;;;;;;;5036418;28;20057;-58
2021/09/04 05:15:06;;;;;;;13.82;11.15;;;;;;;;;;5035939;28;20041;-59
2021/09/04 05:17:32;;;;;;;10.77;9.27;;;;;;;;;;5018490;28;20025;-59
2021/09/04 05:19:58;;;;;;;10.80;9.32;;;;;;;;;;5018498;28;20116;-59
2021/09/04 05:22:24;;;;;;;11.85;9.70;;;;;;;;;;5019074;28;20029;-58
2021/09/04 05:24:50;;;;;;;12.70;9.73;;;;;;;;;;5034091;28;20471;-59
2021/09/04 05:27:18;;;;;;;13.88;9.55;;;;;;;;;;5036416;28;20149;-59
2021/09/04 05:29:44;;;;;;;12.27;10.18;;;;;;;;;;5035890;28;20036;-59
2021/09/04 05:32:10;;;;;;;12.68;11.25;;;;;;;;;;5036367;28;20029;-59
2021/09/04 05:34:36;;;;;;;13.70;10.35;;;;;;;;;;5035591;28;20053;-59
2021/09/04 05:37:05;;;;;;;13.57;10.18;;;;;;;;;;5035930;28;20464;-59
2021/09/04 05:39:31;;;;;;;12.20;9.63;;;;;;;;;;5017768;28;20164;-59
2021/09/04 05:41:57;;;;;;;14.43;8.65;;;;;;;;;;5018347;28;20116;-59
2021/09/04 05:44:23;;;;;;;9.85;8.27;;;;;;;;;;5035701;28;20487;-59
2021/09/04 05:46:51;;;;;;;9.38;8.48;;;;;;;;;;5018538;28;20069;-59
2021/09/04 05:49:17;;;;;;;8.50;7.53;;;;;;;;;;5035640;28;20379;-59
2021/09/04 05:51:45;;;;;;;9.95;8.77;;;;;;;;;;5018692;28;20470;-59
2021/09/04 05:54:11;;;;;;;9.57;7.43;;;;;;;;;;5017737;28;20448;-59
2021/09/04 05:56:37;;;;;;;10.73;7.35;;;;;;;;;;5036298;28;20040;-59
2021/09/04 05:59:03;;;;;;;8.68;7.78;;;;;;;;;;5035517;28;20028;-59
2021/09/04 06:01:29;;;;;;;9.30;6.95;;;;;;;;;;5035471;28;20052;-59
2021/09/04 06:03:55;;;;;;;9.18;8.13;;;;;;;;;;5035412;28;20033;-59
2021/09/04 06:06:21;;;;;;;9.27;8.18;;;;;;;;;;5018456;28;20368;-59
2021/09/04 06:08:47;;;;;;;9.27;7.32;;;;;;;;;;5035326;28;20029;-59
2021/09/04 06:11:13;;;;;;;12.13;8.10;;;;;;;;;;5017224;28;20028;-59
2021/09/04 06:13:42;;;;;;;8.35;7.50;;;;;;;;;;5034742;28;20383;-59
2021/09/04 06:16:08;;;;;;;12.18;8.10;;;;;;;;;;5035492;28;20068;-59
2021/09/04 06:18:34;;;;;;;13.30;9.02;;;;;;;;;;5017084;28;20026;-59
2021/09/04 06:21:00;;;;;;;11.50;8.63;;;;;;;;;;5034974;28;20036;-59
2021/09/04 06:23:26;;;;;;;8.65;7.75;;;;;;;;;;5034986;28;20411;-59
2021/09/04 06:25:52;;;;;;;10.88;8.55;;;;;;;;;;5017155;28;20028;-59
2021/09/04 06:28:18;;;;;;;9.43;8.27;;;;;;;;;;5034714;28;20029;-59
2021/09/04 06:30:47;;;;;;;10.27;8.57;;;;;;;;;;5016105;28;20029;-59
2021/09/04 06:33:13;;;;;;;12.05;8.88;;;;;;;;;;5034818;28;20036;-59
2021/09/04 06:35:39;;;;;;;10.38;8.98;;;;;;;;;;5016910;28;20112;-58
2021/09/04 06:38:05;;;;;;;12.07;9.63;;;;;;;;;;5034819;28;20431;-59
2021/09/04 06:40:31;;;;;;;12.98;9.38;;;;;;;;;;5035227;28;20030;-59
2021/09/04 06:42:57;;;;;;;10.32;8.80;;;;;;;;;;5016953;28;20033;-59
2021/09/04 06:45:25;;;;;;;11.40;8.73;;;;;;;;;;5034350;28;20029;-58
2021/09/04 06:47:52;;;;;;;13.95;9.52;;;;;;;;;;5034554;28;20034;-59
2021/09/04 06:50:18;;;;;;;10.57;9.45;;;;;;;;;;5034986;28;20029;-59
2021/09/04 06:52:47;;;;;;;10.45;7.72;;;;;;;;;;5000540;28;20026;-59
2021/09/04 06:55:13;;;;;;;10.20;8.23;;;;;;;;;;5034885;28;20136;-59
2021/09/04 06:57:40;;;;;;;10.43;8.50;;;;;;;;;;5034873;28;20355;-59
2021/09/04 07:00:06;;;;;;;10.98;7.97;;;;;;;;;;5034832;28;20070;-59
2021/09/04 07:02:32;;;;;;;11.10;8.85;;;;;;;;;;5034444;28;20526;-59
2021/09/04 07:05:00;;;;;;;10.35;8.60;;;;;;;;;;5034392;28;20029;-59
2021/09/04 07:07:26;;;;;;;11.02;8.90;;;;;;;;;;5033929;28;20034;-59
2021/09/04 07:09:53;;;;;;;10.73;8.82;;;;;;;;;;5034540;28;20088;-59
2021/09/04 07:12:18;;;;;;;10.88;9.80;;;;;;;;;;5034860;28;20045;-59
2021/09/04 07:14:50;;;;;;;12.02;9.57;;;;;;;;;;5034746;28;20045;-59
2021/09/04 07:17:19;;;;;;;9.57;8.57;;;;;;;;;;5034613;28;20360;-59
2021/09/04 07:19:48;;;;;;;10.15;8.73;;;;;;;;;;5016835;28;20112;-59
2021/09/04 07:22:14;;;;;;;10.52;9.02;;;;;;;;;;5034341;28;20494;-59
2021/09/04 07:24:42;;;;;;;9.52;8.57;;;;;;;;;;5034439;28;20026;-59
2021/09/04 07:27:08;;;;;;;10.45;9.02;;;;;;;;;;5016108;28;20026;-59
2021/09/04 07:29:34;;;;;;;10.38;8.10;;;;;;;;;;5033591;28;20021;-59
2021/09/04 07:32:01;;;;;;;10.35;7.82;;;;;;;;;;5033791;28;20018;-59
2021/09/04 07:34:27;;;;;;;12.35;8.63;;;;;;;;;;5016771;28;20038;-60
2021/09/04 07:36:53;;;;;;;9.65;8.30;;;;;;;;;;5034534;28;20026;-58
2021/09/04 07:39:19;;;;;;;12.00;9.15;;;;;;;;;;5033728;28;20018;-58
2021/09/04 07:41:45;;;;;;;10.70;8.48;;;;;;;;;;5033966;28;20070;-58
2021/09/04 07:44:11;;;;;;;12.70;7.85;;;;;;;;;;5033931;28;20140;-58
2021/09/04 07:46:36;;;;;;;8.80;6.85;;;;;;;;;;5016137;28;20021;-58
2021/09/04 07:49:06;;;;;;;8.90;7.68;;;;;;;;;;5015140;28;20048;-58
2021/09/04 07:51:32;;;;;;;8.00;7.15;;;;;;;;;;5033668;28;20072;-58
2021/09/04 07:53:58;;;;;;;8.57;7.25;;;;;;;;;;5016361;28;20366;-58
2021/09/04 07:56:24;;;;;;;7.53;6.45;;;;;;;;;;5034175;28;20049;-58
2021/09/04 07:58:50;;;;;;;8.68;6.32;;;;;;;;;;5033254;28;20484;-58
2021/09/04 08:01:16;;;;;;;6.68;5.75;;;;;;;;;;5032606;28;20033;-58
2021/09/04 08:03:42;;;;;;;11.05;6.22;;;;;;;;;;5015764;28;20080;-58
2021/09/04 08:06:08;;;;;;;7.38;5.88;;;;;;;;;;5016127;28;20057;-58
2021/09/04 08:08:35;;;;;;;10.18;6.03;;;;;;;;;;5016037;28;20451;-58
2021/09/04 08:11:01;;;;;;;9.75;6.32;;;;;;;;;;5015874;28;20113;-58
2021/09/04 08:13:27;;;;;;;10.23;6.80;;;;;;;;;;5034006;28;20076;-58
2021/09/04 08:15:53;;;;;;;8.57;6.35;;;;;;;;;;5015424;28;20037;-58
2021/09/04 08:18:19;;;;;;;6.53;5.82;;;;;;;;;;5033929;28;20026;-59
2021/09/04 08:20:45;;;;;;;7.00;5.75;;;;;;;;;;5033897;28;20034;-59
2021/09/04 08:23:11;;;;;;;11.63;5.97;;;;;;;;;;5033578;28;20026;-59
2021/09/04 08:25:38;;;;;;;7.03;5.78;;;;;;;;;;5015179;28;20032;-58
2021/09/04 08:28:10;;;;;;;10.75;6.88;;;;;;;;;;5015667;28;20080;-59
2021/09/04 08:30:36;;;;;;;6.35;5.75;;;;;;;;;;5033461;28;20033;-59
2021/09/04 08:33:06;;;;;;;10.43;6.22;;;;;;;;;;5016033;28;20026;-59
2021/09/04 08:35:32;;;;;;;7.63;5.85;;;;;;;;;;5033258;28;20022;-59
2021/09/04 08:37:59;;;;;;;7.20;6.20;;;;;;;;;;5016318;28;20452;-58
2021/09/04 08:40:25;;;;;;;8.40;6.35;;;;;;;;;;5033996;28;20033;-59
2021/09/04 08:42:53;;;;;;;8.32;5.25;;;;;;;;;;5016331;28;20033;-59
2021/09/04 08:45:19;;;;;;;7.07;6.38;;;;;;;;;;5033691;28;20041;-59
2021/09/04 08:47:45;;;;;;;7.85;5.70;;;;;;;;;;5033173;28;20025;-59
2021/09/04 08:50:12;;;;;;;7.68;6.38;;;;;;;;;;5032959;28;20112;-59
2021/09/04 08:52:41;;;;;;;7.70;6.15;;;;;;;;;;5033137;28;20518;-59
2021/09/04 08:55:07;;;;;;;5.78;5.18;;;;;;;;;;5015452;28;20084;-59
2021/09/04 08:57:33;;;;;;;8.00;5.32;;;;;;;;;;5032708;28;20037;-59
2021/09/04 09:00:00;;;;;;;7.82;6.28;;;;;;;;;;5035502;28;20432;-59
2021/09/04 09:02:27;;;;;;;7.57;5.40;;;;;;;;;;5036977;28;20033;-59
2021/09/04 09:05:19;;;;;;;7.05;5.18;;;;;;;;;;5036725;28;20459;-59
2021/09/04 09:07:47;;;;;;;6.45;5.45;;;;;;;;;;5014581;28;20045;-58
2021/09/04 09:10:22;;;;;;;9.50;6.38;;;;;;;;;;5036303;28;20022;-59
2021/09/04 09:12:48;;;;;;;7.47;6.43;;;;;;;;;;5018558;28;20127;-59
2021/09/04 09:15:21;;;;;;;5.07;4.47;;;;;;;;;;5036273;28;20474;-58
2021/09/04 09:17:58;;;;;;;6.40;4.90;;;;;;;;;;5036163;28;20028;-58
2021/09/04 09:20:25;;;;;;;7.50;5.47;;;;;;;;;;5019089;28;20024;-59
2021/09/04 09:22:51;;;;;;;5.97;5.00;;;;;;;;;;5036180;28;20052;-59
2021/09/04 09:25:21;;;;;;;5.65;4.93;;;;;;;;;;5036015;28;20498;-58
2021/09/04 09:28:00;;;;;;;6.85;5.43;;;;;;;;;;5018998;28;20041;-59
2021/09/04 09:30:32;;;;;;;8.90;5.15;;;;;;;;;;5035929;28;20017;-59
2021/09/04 09:32:58;;;;;;;7.55;5.85;;;;;;;;;;5036462;28;20022;-59
2021/09/04 09:35:34;;;;;;;8.00;5.43;;;;;;;;;;5035906;28;20025;-59
2021/09/04 09:38:01;;;;;;;5.78;4.28;;;;;;;;;;5036208;28;20030;-59
2021/09/04 09:40:27;;;;;;;10.63;4.88;;;;;;;;;;5035872;28;20065;-59
2021/09/04 09:42:53;;;;;;;7.45;5.13;;;;;;;;;;5036667;28;20032;-59
2021/09/04 09:45:19;;;;;;;7.35;4.38;;;;;;;;;;5018020;28;20100;-58
2021/09/04 09:47:52;;;;;;;6.50;4.05;;;;;;;;;;5035731;28;20021;-58
2021/09/04 09:50:18;;;;;;;4.65;3.25;;;;;;;;;;5035933;28;20044;-58
2021/09/04 09:52:48;;;;;;;4.93;4.35;;;;;;;;;;5035953;28;20021;-58
2021/09/04 09:55:14;;;;;;;6.00;3.95;;;;;;;;;;5035297;28;20468;-58
2021/09/04 09:57:41;;;;;;;5.18;3.60;;;;;;;;;;5035203;28;20467;-58
2021/09/04 10:00:07;;;;;;;4.88;4.05;;;;;;;;;;5018551;28;20037;-58
2021/09/04 10:02:34;;;;;;;4.93;4.10;;;;;;;;;;5017636;28;20021;-58
2021/09/04 10:05:01;;;;;;;4.63;3.55;;;;;;;;;;5035769;28;20061;-58
2021/09/04 10:07:27;;;;;;;5.05;3.50;;;;;;;;;;5035581;28;20116;-58
2021/09/04 10:09:53;;;;;;;4.20;3.25;;;;;;;;;;5035231;28;20026;-58
2021/09/04 10:12:19;;;;;;;5.70;3.58;;;;;;;;;;5035181;28;20128;-58
2021/09/04 10:14:46;;;;;;;3.88;3.17;;;;;;;;;;5035213;28;20021;-58
2021/09/04 10:17:13;;;;;;;4.53;3.15;;;;;;;;;;5035265;28;20026;-58
2021/09/04 10:19:40;;;;;;;6.22;3.78;;;;;;;;;;5035155;28;20033;-58
2021/09/04 10:22:10;;;;;;;4.10;3.15;;;;;;;;;;5035162;28;20109;-58
2021/09/04 10:24:51;;;;;;;4.88;3.85;;;;;;;;;;5035629;28;20040;-58
2021/09/04 10:27:37;;;;;;;5.18;3.90;;;;;;;;;;5017281;28;20469;-58
2021/09/04 10:30:22;;;;;;;3.90;2.85;;;;;;;;;;5035588;28;20026;-59
2021/09/04 10:33:07;;;;;;;3.35;2.63;;;;;;;;;;5017144;28;20049;-59
2021/09/04 10:35:39;;;;;;;5.65;3.22;;;;;;;;;;5034867;28;20083;-59
2021/09/04 10:38:20;;;;;;;4.07;3.10;;;;;;;;;;5035071;28;20014;-59
2021/09/04 10:40:50;;;;;;;4.20;2.88;;;;;;;;;;5034392;28;20018;-59
2021/09/04 10:43:16;;;;;;;;;;;;;;;;;;5035288;28;20518;-59
2021/09/04 10:45:47;;;;;;;4.40;3.10;;;;;;;;;;5035120;28;19964;-59
2021/09/04 10:48:14;;;;;;;5.18;3.97;;;;;;;;;;5034544;28;20021;-59
2021/09/04 10:50:40;;;;;;;4.53;2.70;;;;;;;;;;5017377;28;20083;-59
2021/09/04 10:53:09;;;;;;;4.43;3.25;;;;;;;;;;5035245;28;20033;-59
2021/09/04 10:55:36;;;;;;;4.47;3.22;;;;;;;;;;5034391;28;20130;-59
2021/09/04 10:58:14;;;;;;;4.57;2.95;;;;;;;;;;5034447;28;20076;-59
2021/09/04 11:00:42;;;;;;;4.43;2.65;;;;;;;;;;5034670;28;20049;-59
2021/09/04 11:03:12;;;;;;;6.47;3.13;;;;;;;;;;5034900;28;20029;-60
2021/09/04 11:05:49;;;;;;;4.07;3.38;;;;;;;;;;5034337;28;20026;-60
2021/09/04 11:08:21;;;;;;;4.00;2.83;;;;;;;;;;5034292;28;20021;-60
2021/09/04 11:11:06;;;;;;;4.03;2.95;;;;;;;;;;5033948;28;20037;-60
2021/09/04 11:13:32;;;;;;;3.80;2.80;;;;;;;;;;5034690;28;20080;-60
2021/09/04 11:16:18;;;;;;;3.55;2.33;;;;;;;;;;5034068;28;20057;-60
2021/09/04 11:18:45;;;;;;;5.32;3.42;;;;;;;;;;5034284;28;20029;-60
2021/09/04 11:21:12;;;;;;;5.18;2.75;;;;;;;;;;5034019;28;20105;-60
2021/09/04 11:23:42;;;;;;;4.15;3.00;;;;;;;;;;5034766;28;20029;-60
2021/09/04 11:26:08;;;;;;;4.70;2.60;;;;;;;;;;5033929;28;20096;-60
2021/09/04 11:28:35;;;;;;;3.95;2.85;;;;;;;;;;5033895;28;20076;-60
2021/09/04 11:31:01;;;;;;;4.25;2.85;;;;;;;;;;5033827;28;20032;-60
2021/09/04 11:33:27;;;;;;;4.05;2.67;;;;;;;;;;5034070;28;20029;-60
2021/09/04 11:35:57;;;;;;;4.18;2.90;;;;;;;;;;5033356;28;20033;-61
2021/09/04 11:38:23;;;;;;;6.50;2.83;;;;;;;;;;5033528;28;20053;-60
2021/09/04 11:40:51;;;;;;;4.90;2.95;;;;;;;;;;5034644;28;20032;-60
2021/09/04 11:43:18;;;;;;;4.10;2.53;;;;;;;;;;5033933;28;20041;-60
2021/09/04 11:45:45;;;;;;;3.85;2.90;;;;;;;;;;5015950;28;20060;-60
2021/09/04 11:48:12;;;;;;;3.92;2.95;;;;;;;;;;5034428;28;20052;-60
2021/09/04 11:50:38;;;;;;;5.40;3.28;;;;;;;;;;5033046;28;20026;-60
2021/09/04 11:53:22;;;;;;;3.60;2.75;;;;;;;;;;5034073;28;20017;-60
2021/09/04 11:55:50;;;;;;;4.60;2.85;;;;;;;;;;5034193;28;20104;-60
2021/09/04 11:58:16;;;;;;;4.10;2.90;;;;;;;;;;5034102;28;20452;-60
2021/09/04 12:00:43;;;;;;;3.28;2.10;;;;;;;;;;5015881;28;20104;-60
2021/09/04 12:03:11;;;;;;;5.22;2.50;;;;;;;;;;5033405;28;20125;-60
2021/09/04 12:05:38;;;;;;;3.92;2.75;;;;;;;;;;5033443;28;20033;-60
2021/09/04 12:08:25;;;;;;;4.35;2.70;;;;;;;;;;5033404;28;20057;-60
2021/09/04 12:10:52;;;;;;;4.38;2.75;;;;;;;;;;5033554;28;20026;-60
2021/09/04 12:13:24;;;;;;;4.88;3.03;;;;;;;;;;5033971;28;20055;-60
2021/09/04 12:15:52;;;;;;;3.92;2.55;;;;;;;;;;5033355;28;20060;-60
2021/09/04 12:18:41;;;;;;;3.17;2.55;;;;;;;;;;5033423;28;20461;-60
2021/09/04 12:21:19;;;;;;;5.18;3.15;;;;;;;;;;5033253;28;20025;-60
2021/09/04 12:23:46;;;;;;;5.00;3.58;;;;;;;;;;5033876;28;20088;-60
2021/09/04 12:26:12;;;;;;;6.18;3.30;;;;;;;;;;5033340;28;20022;-60
2021/09/04 12:28:38;;;;;;;4.45;3.25;;;;;;;;;;5033192;28;20018;-60
2021/09/04 12:31:06;;;;;;;3.85;2.60;;;;;;;;;;5033318;28;20061;-60
2021/09/04 12:33:32;;;;;;;6.00;3.10;;;;;;;;;;5033723;28;20124;-60
2021/09/04 12:36:02;;;;;;;3.13;2.55;;;;;;;;;;5036640;28;20025;-60
2021/09/04 12:38:33;;;;;;;4.60;3.17;;;;;;;;;;5036992;28;20467;-60
2021/09/04 12:40:59;;;;;;;4.93;3.13;;;;;;;;;;5036967;28;20116;-60
2021/09/04 12:43:25;;;;;;;5.18;3.58;;;;;;;;;;5037028;28;20133;-60
2021/09/04 12:46:05;;;;;;;5.50;3.38;;;;;;;;;;5037671;28;20037;-60
2021/09/04 12:48:32;;;;;;;4.50;3.25;;;;;;;;;;5036494;28;20468;-60
2021/09/04 12:51:14;;;;;;;4.10;2.88;;;;;;;;;;5036736;28;20029;-60
2021/09/04 12:53:43;;;;;;;3.40;2.50;;;;;;;;;;5037830;28;20348;-60
2021/09/04 12:56:09;;;;;;;4.07;2.75;;;;;;;;;;5019459;28;20029;-60
2021/09/04 12:58:35;;;;;;;4.82;2.67;;;;;;;;;;5037501;28;20092;-60
2021/09/04 13:01:06;;;;;;;4.82;3.05;;;;;;;;;;5036702;28;20021;-60
2021/09/04 13:03:32;;;;;;;4.93;3.30;;;;;;;;;;5036685;28;20032;-60
2021/09/04 13:05:58;;;;;;;4.03;2.78;;;;;;;;;;5036523;28;20352;-60
2021/09/04 13:08:24;;;;;;;4.43;3.05;;;;;;;;;;5036493;28;20022;-60
2021/09/04 13:10:50;;;;;;;4.38;2.90;;;;;;;;;;5018700;28;20021;-60
2021/09/04 13:13:16;;;;;;;4.13;2.88;;;;;;;;;;5036697;28;20057;-60
2021/09/04 13:15:42;;;;;;;6.35;3.55;;;;;;;;;;5019201;28;20039;-60
2021/09/04 13:18:08;;;;;;;2.83;1.98;;;;;;;;;;5036012;28;20018;-60
2021/09/04 13:20:34;;;;;;;4.30;2.80;;;;;;;;;;5036220;28;20072;-60
2021/09/04 13:23:00;;;;;;;3.92;2.42;;;;;;;;;;5036616;28;20141;-60
2021/09/04 13:25:26;;;;;;;3.40;2.28;;;;;;;;;;5036203;28;20029;-60
2021/09/04 13:27:52;;;;;;;4.28;2.60;;;;;;;;;;5036178;28;20029;-60
2021/09/04 13:30:19;;;;;;;2.97;2.40;;;;;;;;;;5036037;28;20482;-60
2021/09/04 13:32:45;;;;;;;3.92;2.67;;;;;;;;;;5036048;28;20025;-60
2021/09/04 13:35:11;;;;;;;3.72;2.55;;;;;;;;;;5035884;28;20087;-60
2021/09/04 13:37:37;;;;;;;4.65;2.70;;;;;;;;;;5035958;28;20029;-60
2021/09/04 13:40:04;;;;;;;4.82;2.85;;;;;;;;;;5035893;28;20021;-60
2021/09/04 13:42:30;;;;;;;4.13;3.03;;;;;;;;;;5036413;28;20025;-60
2021/09/04 13:44:56;;;;;;;4.13;2.25;;;;;;;;;;5018588;28;20407;-60
2021/09/04 13:47:22;;;;;;;3.28;1.80;;;;;;;;;;5034666;28;20491;-60
2021/09/04 13:49:48;;;;;;;5.05;2.45;;;;;;;;;;5035724;28;20394;-60
2021/09/04 13:52:14;;;;;;;3.20;2.55;;;;;;;;;;5036362;28;20029;-60
2021/09/04 13:54:40;;;;;;;3.72;2.20;;;;;;;;;;5035611;28;20061;-60
2021/09/04 13:57:06;;;;;;;4.50;3.25;;;;;;;;;;5035318;28;20036;-60
2021/09/04 13:59:32;;;;;;;4.60;3.20;;;;;;;;;;5035067;28;20025;-60
2021/09/04 14:01:58;;;;;;;3.85;2.70;;;;;;;;;;5036365;28;20025;-60
2021/09/04 14:04:24;;;;;;;5.20;2.85;;;;;;;;;;5035173;28;20117;-60
2021/09/04 14:06:50;;;;;;;3.97;2.85;;;;;;;;;;5017428;28;20021;-60
2021/09/04 14:09:16;;;;;;;3.85;2.88;;;;;;;;;;5035063;28;20065;-60
2021/09/04 14:11:42;;;;;;;4.65;3.30;;;;;;;;;;5035414;28;20041;-60
2021/09/04 14:14:08;;;;;;;4.90;2.70;;;;;;;;;;5017985;28;20108;-60
2021/09/04 14:16:34;;;;;;;3.70;2.72;;;;;;;;;;5035719;28;20030;-60
2021/09/04 14:19:03;;;;;;;3.60;2.60;;;;;;;;;;5035783;28;20025;-60
2021/09/04 14:21:29;;;;;;;5.70;3.30;;;;;;;;;;5035649;28;20136;-60
2021/09/04 14:23:55;;;;;;;3.78;2.63;;;;;;;;;;5035067;28;20033;-60
2021/09/04 14:26:21;;;;;;;5.38;2.90;;;;;;;;;;5034697;28;20097;-60
2021/09/04 14:28:47;;;;;;;3.90;2.97;;;;;;;;;;5034585;28;20028;-60
2021/09/04 14:31:13;;;;;;;3.22;2.50;;;;;;;;;;5034632;28;20025;-60
2021/09/04 14:33:39;;;;;;;2.65;2.15;;;;;;;;;;5035703;28;20034;-60
2021/09/04 14:36:05;;;;;;;4.80;2.78;;;;;;;;;;5017769;28;20459;-60
2021/09/04 14:38:31;;;;;;;4.25;2.65;;;;;;;;;;5034541;28;20032;-60